Time,TemperatureF,DewpointF,PressureIn,WindDirection,WindDirectionDegrees,WindSpeedMPH,WindSpeedGustMPH,Humidity,HourlyPrecipIn,Conditions,Clouds,dailyrainin,SoftwareType,DateUTC
2013-01-01 00:00:00,69.9,61.2,30.19,ESE,105,0.0,1.1,74,0.00,CLR,,0.00,WeatherDisplay:10.37,2013-01-01 05:00:00,
2013-01-01 00:01:00,69.9,61.2,30.19,ESE,105,0.1,1.1,74,0.00,CLR,,0.00,WeatherDisplay:10.37,2013-01-01 05:01:00,
2013-01-01 00:06:00,69.9,62.0,30.19,ESE,105,0.4,1.1,76,0.00,CLR,,0.00,WeatherDisplay:10.37,2013-01-01 05:06:00,
2013-01-01 00:11:00,69.7,62.2,30.18,ESE,105,0.1,1.1,77,0.00,CLR,,0.00,WeatherDisplay:10.37,2013-01-01 05:11:00,
2013-01-01 00:16:00,69.4,62.6,30.18,ESE,105,0.2,1.1,79,0.00,CLR,,0.00,WeatherDisplay:10.37,2013-01-01 05:16:00,
2013-01-01 00:21:00,69.1,62.3,30.18,ESE,105,0.0,0.0,79,0.00,CLR,,0.00,WeatherDisplay:10.37,2013-01-01 05:21:00,
2013-01-01 00:26:00,68.8,61.3,30.18,ESE,105,0.5,2.3,77,0.00,CLR,,0.00,WeatherDisplay:10.37,2013-01-01 05:26:00,
2013-01-01 00:31:00,68.7,61.2,30.18,ESE,105,0.0,0.0,77,0.00,CLR,,0.00,WeatherDisplay:10.37,2013-01-01 05:31:00,
2013-01-01 00:36:00,68.7,61.9,30.18,ESE,105,2.1,3.5,79,0.00,CLR,,0.00,WeatherDisplay:10.37,2013-01-01 05:36:00,
2013-01-01 00:41:00,69.0,61.9,30.18,ESE,105,0.5,2.3,78,0.00,CLR,,0.00,WeatherDisplay:10.37,2013-01-01 05:41:00,
2013-01-01 00:46:00,69.4,62.2,30.18,ESE,105,1.7,3.5,78,0.00,CLR,,0.00,WeatherDisplay:10.37,2013-01-01 05:46:00,
2013-01-01 00:51:00,69.6,62.1,30.18,ESE,105,1.8,2.3,77,0.00,CLR,,0.00,WeatherDisplay:10.37,2013-01-01 05:51:00,
2013-01-01 00:56:00,69.8,61.9,30.17,ESE,105,4.0,4.6,76,0.00,CLR,,0.00,WeatherDisplay:10.37,2013-01-01 05:56:00,
2013-01-01 01:01:00,69.9,61.6,30.17,ESE,109,3.7,4.6,75,0.00,CLR,,0.00,WeatherDisplay:10.37,2013-01-01 06:01:00,
2013-01-01 01:06:00,70.0,61.3,30.17,ESE,109,1.1,2.3,74,0.00,CLR,,0.00,WeatherDisplay:10.37,2013-01-01 06:06:00,
2013-01-01 01:11:00,69.9,60.8,30.17,ESE,111,1.2,1.2,73,0.00,CLR,,0.00,WeatherDisplay:10.37,2013-01-01 06:11:00,
2013-01-01 01:16:00,69.7,60.3,30.17,SE,137,3.7,5.8,72,0.00,CLR,,0.00,WeatherDisplay:10.37,2013-01-01 06:16:00,
2013-01-01 01:21:00,69.7,60.3,30.17,SE,139,1.5,2.3,72,0.00,CLR,,0.00,WeatherDisplay:10.37,2013-01-01 06:21:00,
2013-01-01 01:26:00,69.8,59.6,30.17,East,93,1.0,1.1,70,0.00,CLR,,0.00,WeatherDisplay:10.37,2013-01-01 06:26:00,
2013-01-01 01:31:00,69.8,59.6,30.17,ESE,119,2.5,3.5,70,0.00,CLR,,0.00,WeatherDisplay:10.37,2013-01-01 06:31:00,
2013-01-01 01:36:00,69.8,60.0,30.17,ESE,119,1.1,2.3,71,0.00,CLR,,0.00,WeatherDisplay:10.37,2013-01-01 06:36:00,
2013-01-01 01:41:00,69.7,59.5,30.17,ESE,119,1.2,3.5,70,0.00,CLR,,0.00,WeatherDisplay:10.37,2013-01-01 06:41:00,
2013-01-01 01:46:00,69.7,60.3,30.17,ESE,119,0.1,1.1,72,0.00,CLR,,0.00,WeatherDisplay:10.37,2013-01-01 06:46:00,
2013-01-01 01:51:00,69.5,60.5,30.17,ESE,119,0.0,0.0,73,0.00,CLR,,0.00,WeatherDisplay:10.37,2013-01-01 06:51:00,
2013-01-01 01:56:00,69.3,60.3,30.17,ESE,119,0.0,0.0,73,0.00,CLR,,0.00,WeatherDisplay:10.37,2013-01-01 06:56:00,
2013-01-01 02:01:00,69.2,60.2,30.17,SE,137,3.3,5.8,73,0.00,CLR,,0.00,WeatherDisplay:10.37,2013-01-01 07:01:00,
2013-01-01 02:06:00,69.2,60.2,30.17,SE,137,0.6,2.3,73,0.00,CLR,,0.00,WeatherDisplay:10.37,2013-01-01 07:06:00,
2013-01-01 02:11:00,69.2,60.9,30.17,SE,137,1.0,1.1,75,0.00,CLR,,0.00,WeatherDisplay:10.37,2013-01-01 07:11:00,
2013-01-01 02:16:00,69.0,60.7,30.17,SE,137,0.0,1.0,75,0.00,CLR,,0.00,WeatherDisplay:10.37,2013-01-01 07:16:00,
2013-01-01 02:21:00,68.8,60.2,30.17,ESE,102,1.9,4.6,74,0.00,CLR,,0.00,WeatherDisplay:10.37,2013-01-01 07:21:00,
2013-01-01 02:26:00,68.8,60.6,30.16,ESE,102,1.8,3.5,75,0.00,CLR,,0.00,WeatherDisplay:10.37,2013-01-01 07:26:00,
2013-01-01 02:31:00,68.7,60.1,30.16,ESE,102,0.7,1.1,74,0.00,CLR,,0.00,WeatherDisplay:10.37,2013-01-01 07:31:00,
2013-01-01 02:36:00,68.5,61.0,30.16,ESE,102,0.0,0.0,77,0.00,CLR,,0.00,WeatherDisplay:10.37,2013-01-01 07:36:00,
2013-01-01 02:42:00,68.3,60.8,30.16,ESE,102,0.0,0.0,77,0.00,CLR,,0.00,WeatherDisplay:10.37,2013-01-01 07:42:00,
2013-01-01 02:47:00,67.9,60.8,30.16,ESE,102,0.1,1.1,78,0.00,CLR,,0.00,WeatherDisplay:10.37,2013-01-01 07:47:00,
2013-01-01 02:52:00,67.7,61.0,30.17,ESE,102,0.0,0.0,79,0.00,CLR,,0.00,WeatherDisplay:10.37,2013-01-01 07:52:00,
2013-01-01 02:57:00,67.4,61.0,30.17,ESE,102,0.0,0.0,80,0.00,CLR,,0.00,WeatherDisplay:10.37,2013-01-01 07:57:00,
2013-01-01 03:02:00,67.2,61.2,30.17,ESE,102,0.0,0.0,81,0.00,CLR,,0.00,WeatherDisplay:10.37,2013-01-01 08:02:00,
2013-01-01 03:07:00,67.0,61.0,30.17,ESE,102,0.0,0.0,81,0.00,CLR,,0.00,WeatherDisplay:10.37,2013-01-01 08:07:00,
2013-01-01 03:12:00,66.9,61.2,30.16,ESE,102,0.0,0.0,82,0.00,CLR,,0.00,WeatherDisplay:10.37,2013-01-01 08:12:00,
2013-01-01 03:17:00,66.7,61.0,30.16,ESE,102,0.0,0.0,82,0.00,CLR,,0.00,WeatherDisplay:10.37,2013-01-01 08:17:00,
2013-01-01 03:22:00,66.5,61.2,30.17,ESE,102,0.0,0.0,83,0.00,CLR,,0.00,WeatherDisplay:10.37,2013-01-01 08:22:00,
2013-01-01 03:27:00,66.3,61.0,30.16,ESE,102,0.0,0.0,83,0.00,CLR,,0.00,WeatherDisplay:10.37,2013-01-01 08:27:00,
2013-01-01 03:32:00,66.2,61.2,30.16,ESE,102,0.0,0.0,84,0.00,CLR,,0.00,WeatherDisplay:10.37,2013-01-01 08:32:00,
2013-01-01 03:37:00,66.2,61.2,30.16,ESE,102,0.0,0.0,84,0.00,CLR,,0.00,WeatherDisplay:10.37,2013-01-01 08:37:00,
2013-01-01 03:42:00,66.1,61.1,30.16,ESE,102,0.0,0.0,84,0.00,CLR,,0.00,WeatherDisplay:10.37,2013-01-01 08:42:00,
2013-01-01 03:47:00,66.1,61.1,30.16,ESE,102,0.0,0.0,84,0.00,CLR,,0.00,WeatherDisplay:10.37,2013-01-01 08:47:00,
2013-01-01 03:52:00,66.1,61.5,30.17,ESE,102,0.0,0.0,85,0.00,CLR,,0.00,WeatherDisplay:10.37,2013-01-01 08:52:00,
2013-01-01 03:57:00,66.1,61.1,30.17,ESE,102,0.0,0.0,84,0.00,CLR,,0.00,WeatherDisplay:10.37,2013-01-01 08:57:00,
2013-01-01 04:02:00,66.2,61.6,30.17,ESE,102,0.0,0.0,85,0.00,CLR,,0.00,WeatherDisplay:10.37,2013-01-01 09:02:00,
2013-01-01 04:07:00,66.2,61.6,30.17,ESE,102,0.0,0.0,85,0.00,CLR,,0.00,WeatherDisplay:10.37,2013-01-01 09:07:00,
2013-01-01 04:12:00,66.1,61.5,30.16,ESE,102,0.0,0.0,85,0.00,CLR,,0.00,WeatherDisplay:10.37,2013-01-01 09:12:00,
2013-01-01 04:17:00,66.1,61.5,30.16,ESE,102,0.0,0.0,85,0.00,CLR,,0.00,WeatherDisplay:10.37,2013-01-01 09:17:00,
2013-01-01 04:22:00,66.0,61.4,30.16,ESE,102,0.0,0.0,85,0.00,CLR,,0.00,WeatherDisplay:10.37,2013-01-01 09:22:00,
2013-01-01 04:27:00,66.1,61.5,30.16,ESE,102,0.0,0.0,85,0.00,CLR,,0.00,WeatherDisplay:10.37,2013-01-01 09:27:00,
2013-01-01 04:32:00,66.1,61.5,30.16,ESE,102,0.0,0.0,85,0.00,CLR,,0.00,WeatherDisplay:10.37,2013-01-01 09:32:00,
2013-01-01 04:37:00,66.1,61.5,30.15,ESE,102,0.5,0.0,85,0.00,CLR,,0.00,WeatherDisplay:10.37,2013-01-01 09:37:00,
2013-01-01 04:42:00,66.3,61.0,30.15,ESE,102,0.6,2.3,83,0.00,CLR,,0.00,WeatherDisplay:10.37,2013-01-01 09:42:00,
2013-01-01 04:47:00,66.8,60.4,30.15,ESE,102,0.6,2.3,80,0.00,CLR,,0.00,WeatherDisplay:10.37,2013-01-01 09:47:00,
2013-01-01 04:52:00,67.5,60.4,30.15,ESE,102,2.6,4.6,78,0.00,CLR,,0.00,WeatherDisplay:10.37,2013-01-01 09:52:00,
2013-01-01 04:57:00,68.1,60.6,30.14,East,101,2.1,5.8,77,0.00,CLR,,0.00,WeatherDisplay:10.37,2013-01-01 09:57:00,
2013-01-01 05:02:00,68.7,60.5,30.14,ESE,113,2.2,5.8,75,0.00,CLR,,0.00,WeatherDisplay:10.37,2013-01-01 10:02:00,
2013-01-01 05:07:00,69.1,60.5,30.14,SSE,152,1.8,4.6,74,0.00,CLR,,0.00,WeatherDisplay:10.37,2013-01-01 10:07:00,
2013-01-01 05:12:00,69.3,60.3,30.14,ESE,105,3.4,6.9,73,0.00,CLR,,0.00,WeatherDisplay:10.37,2013-01-01 10:12:00,
2013-01-01 05:17:00,69.5,60.1,30.14,East,101,2.6,5.8,72,0.00,CLR,,0.00,WeatherDisplay:10.37,2013-01-01 10:17:00,
2013-01-01 05:22:00,69.5,59.7,30.14,ESE,107,3.8,6.9,71,0.00,CLR,,0.00,WeatherDisplay:10.37,2013-01-01 10:22:00,
2013-01-01 05:27:00,69.6,59.8,30.14,ESE,120,4.4,6.9,71,0.00,CLR,,0.00,WeatherDisplay:10.37,2013-01-01 10:27:00,
2013-01-01 05:32:00,69.7,59.9,30.14,SE,129,4.0,6.9,71,0.00,CLR,,0.00,WeatherDisplay:10.37,2013-01-01 10:32:00,
2013-01-01 05:37:00,69.5,59.3,30.14,ESE,105,2.7,4.6,70,0.00,CLR,,0.00,WeatherDisplay:10.37,2013-01-01 10:37:00,
2013-01-01 05:42:00,69.4,59.2,30.14,ESE,111,3.2,5.0,70,0.00,CLR,,0.00,WeatherDisplay:10.37,2013-01-01 10:42:00,
2013-01-01 05:47:00,69.2,59.0,30.14,ESE,112,1.9,3.5,70,0.00,CLR,,0.00,WeatherDisplay:10.37,2013-01-01 10:47:00,
2013-01-01 05:52:00,69.0,58.8,30.14,ESE,113,1.5,3.5,70,0.00,CLR,,0.00,WeatherDisplay:10.37,2013-01-01 10:52:00,
2013-01-01 05:57:00,69.0,58.8,30.14,SE,130,1.9,3.5,70,0.00,CLR,,0.00,WeatherDisplay:10.37,2013-01-01 10:57:00,
2013-01-01 06:02:00,69.0,58.8,30.14,SE,130,2.0,3.5,70,0.00,CLR,,0.00,WeatherDisplay:10.37,2013-01-01 11:02:00,
2013-01-01 06:07:00,69.0,59.2,30.14,SE,130,0.6,2.3,71,0.00,CLR,,0.00,WeatherDisplay:10.37,2013-01-01 11:07:00,
2013-01-01 06:12:00,69.0,59.6,30.14,SE,130,0.6,2.3,72,0.00,CLR,,0.00,WeatherDisplay:10.37,2013-01-01 11:12:00,
2013-01-01 06:17:00,68.9,59.5,30.14,SE,130,2.1,3.5,72,0.00,CLR,,0.00,WeatherDisplay:10.37,2013-01-01 11:17:00,
2013-01-01 06:22:00,68.9,59.5,30.14,SE,130,1.5,3.5,72,0.00,CLR,,0.00,WeatherDisplay:10.37,2013-01-01 11:22:00,
2013-01-01 06:27:00,69.1,59.7,30.14,SE,126,1.7,3.5,72,0.00,CLR,,0.00,WeatherDisplay:10.37,2013-01-01 11:27:00,
2013-01-01 06:32:00,69.2,59.4,30.14,SE,126,1.3,3.5,71,0.00,CLR,,0.00,WeatherDisplay:10.37,2013-01-01 11:32:00,
2013-01-01 06:37:00,69.3,59.5,30.14,SE,126,0.8,2.3,71,0.00,CLR,,0.00,WeatherDisplay:10.37,2013-01-01 11:37:00,
2013-01-01 06:42:00,69.4,59.6,30.13,SE,126,2.1,3.5,71,0.00,CLR,,0.00,WeatherDisplay:10.37,2013-01-01 11:42:00,
2013-01-01 06:47:00,69.4,59.6,30.13,SE,126,1.0,2.3,71,0.00,CLR,,0.00,WeatherDisplay:10.37,2013-01-01 11:47:00,
2013-01-01 06:52:00,69.3,59.5,30.13,SE,126,0.0,0.0,71,0.00,CLR,,0.00,WeatherDisplay:10.37,2013-01-01 11:52:00,
2013-01-01 06:57:00,69.1,60.1,30.13,SE,126,0.6,2.3,73,0.00,CLR,,0.00,WeatherDisplay:10.37,2013-01-01 11:57:00,
2013-01-01 07:02:00,69.0,59.6,30.13,SE,126,2.7,4.6,72,0.00,CLR,,0.00,WeatherDisplay:10.37,2013-01-01 12:02:00,
2013-01-01 07:08:00,68.9,59.9,30.13,SE,126,0.2,1.1,73,0.00,CLR,,0.00,WeatherDisplay:10.37,2013-01-01 12:08:00,
2013-01-01 07:13:00,68.7,60.5,30.13,SE,126,0.3,1.1,75,0.00,CLR,,0.00,WeatherDisplay:10.37,2013-01-01 12:13:00,
2013-01-01 07:18:00,68.6,60.0,30.13,SE,126,0.3,0.0,74,0.00,CLR,,0.00,WeatherDisplay:10.37,2013-01-01 12:18:00,
2013-01-01 07:23:00,68.6,60.4,30.14,SE,126,0.0,0.0,75,0.00,CLR,,0.00,WeatherDisplay:10.37,2013-01-01 12:23:00,
2013-01-01 07:28:00,68.6,61.1,30.14,SE,126,0.0,0.0,77,0.00,CLR,,0.00,WeatherDisplay:10.37,2013-01-01 12:28:00,
2013-01-01 07:33:00,68.6,61.1,30.14,SE,126,0.0,1.1,77,0.00,CLR,,0.00,WeatherDisplay:10.37,2013-01-01 12:33:00,
2013-01-01 07:38:00,68.5,60.6,30.14,SE,126,0.0,0.0,76,0.00,CLR,,0.00,WeatherDisplay:10.37,2013-01-01 12:38:00,
2013-01-01 07:43:00,68.5,61.7,30.14,SE,126,0.0,0.0,79,0.00,CLR,,0.00,WeatherDisplay:10.37,2013-01-01 12:43:00,
2013-01-01 07:48:00,68.4,61.3,30.14,SE,126,0.4,1.1,78,0.00,CLR,,0.00,WeatherDisplay:10.37,2013-01-01 12:48:00,
2013-01-01 07:53:00,68.4,60.9,30.14,SE,126,0.0,0.0,77,0.00,CLR,,0.00,WeatherDisplay:10.37,2013-01-01 12:53:00,
2013-01-01 07:58:00,68.6,61.1,30.14,SE,126,0.0,0.0,77,0.00,CLR,,0.00,WeatherDisplay:10.37,2013-01-01 12:58:00,
2013-01-01 08:03:00,69.0,61.5,30.14,SE,126,0.4,2.3,77,0.00,CLR,,0.00,WeatherDisplay:10.37,2013-01-01 13:03:00,
2013-01-01 08:08:00,69.5,61.6,30.14,SE,124,1.1,3.5,76,0.00,CLR,,0.00,WeatherDisplay:10.37,2013-01-01 13:08:00,
2013-01-01 08:13:00,69.8,61.5,30.15,SE,136,3.6,5.8,75,0.00,CLR,,0.00,WeatherDisplay:10.37,2013-01-01 13:13:00,
2013-01-01 08:18:00,70.0,60.9,30.15,SE,141,0.6,2.3,73,0.00,CLR,,0.00,WeatherDisplay:10.37,2013-01-01 13:18:00,
2013-01-01 08:23:00,70.1,61.4,30.15,SE,141,0.0,0.0,74,0.00,CLR,,0.00,WeatherDisplay:10.37,2013-01-01 13:23:00,
2013-01-01 08:28:00,70.2,62.6,30.15,SE,141,0.1,1.1,77,0.00,CLR,,0.00,WeatherDisplay:10.37,2013-01-01 13:28:00,
2013-01-01 08:33:00,70.2,61.9,30.15,SE,141,0.3,2.3,75,0.00,CLR,,0.00,WeatherDisplay:10.37,2013-01-01 13:33:00,
2013-01-01 08:38:00,70.3,62.7,30.15,SE,141,0.1,1.1,77,0.00,CLR,,0.00,WeatherDisplay:10.37,2013-01-01 13:38:00,
2013-01-01 08:43:00,70.3,62.4,30.15,SE,141,0.1,1.1,76,0.00,CLR,,0.00,WeatherDisplay:10.37,2013-01-01 13:43:00,
2013-01-01 08:48:00,70.4,62.1,30.15,SE,141,0.0,0.0,75,0.00,CLR,,0.00,WeatherDisplay:10.37,2013-01-01 13:48:00,
2013-01-01 08:53:00,70.6,62.3,30.15,SE,141,0.0,0.0,75,0.00,CLR,,0.00,WeatherDisplay:10.37,2013-01-01 13:53:00,
2013-01-01 08:58:00,70.8,62.5,30.15,SE,141,0.3,1.1,75,0.00,CLR,,0.00,WeatherDisplay:10.37,2013-01-01 13:58:00,
2013-01-01 09:03:00,71.0,62.7,30.16,SE,141,0.7,2.3,75,0.00,CLR,,0.00,WeatherDisplay:10.37,2013-01-01 14:03:00,
2013-01-01 09:08:00,71.2,62.9,30.16,SE,141,1.2,3.5,75,0.00,CLR,,0.00,WeatherDisplay:10.37,2013-01-01 14:08:00,
2013-01-01 09:13:00,71.5,63.2,30.16,SE,141,1.9,3.5,75,0.00,CLR,,0.00,WeatherDisplay:10.37,2013-01-01 14:13:00,
2013-01-01 09:18:00,72.0,62.5,30.16,SE,146,5.7,8.1,72,0.00,CLR,,0.00,WeatherDisplay:10.37,2013-01-01 14:18:00,
2013-01-01 09:23:00,72.6,62.7,30.16,SE,133,3.7,4.6,71,0.00,CLR,,0.00,WeatherDisplay:10.37,2013-01-01 14:23:00,
2013-01-01 09:28:00,72.7,61.9,30.16,ESE,107,6.3,9.2,69,0.00,CLR,,0.00,WeatherDisplay:10.37,2013-01-01 14:28:00,
2013-01-01 09:33:00,72.8,62.0,30.16,SE,133,5.8,9.2,69,0.00,CLR,,0.00,WeatherDisplay:10.37,2013-01-01 14:33:00,
2013-01-01 09:38:00,72.9,61.7,30.16,ESE,123,2.4,8.1,68,0.00,CLR,,0.00,WeatherDisplay:10.37,2013-01-01 14:38:00,
2013-01-01 09:43:00,73.1,62.3,30.16,SE,138,3.7,5.8,69,0.00,CLR,,0.00,WeatherDisplay:10.37,2013-01-01 14:43:00,
2013-01-01 09:48:00,73.4,62.2,30.16,SE,128,5.6,10.4,68,0.00,CLR,,0.00,WeatherDisplay:10.37,2013-01-01 14:48:00,
2013-01-01 09:53:00,73.7,62.5,30.16,SSE,150,3.1,4.6,68,0.00,CLR,,0.00,WeatherDisplay:10.37,2013-01-01 14:53:00,
2013-01-01 09:58:00,73.9,62.2,30.16,SSE,168,4.0,4.6,67,0.00,CLR,,0.00,WeatherDisplay:10.37,2013-01-01 14:58:00,
2013-01-01 10:03:00,74.0,62.3,30.16,ESE,119,3.4,4.6,67,0.00,CLR,,0.00,WeatherDisplay:10.37,2013-01-01 15:03:00,
2013-01-01 10:08:00,74.0,61.9,30.16,ESE,123,4.4,6.9,66,0.00,CLR,,0.00,WeatherDisplay:10.37,2013-01-01 15:08:00,
2013-01-01 10:13:00,74.0,62.3,30.16,SE,132,2.8,3.5,67,0.00,CLR,,0.00,WeatherDisplay:10.37,2013-01-01 15:13:00,
2013-01-01 10:18:00,74.1,62.4,30.16,SE,136,5.3,6.9,67,0.00,CLR,,0.00,WeatherDisplay:10.37,2013-01-01 15:18:00,
2013-01-01 10:23:00,74.1,62.0,30.16,ESE,108,8.1,11.5,66,0.00,CLR,,0.00,WeatherDisplay:10.37,2013-01-01 15:23:00,
2013-01-01 10:28:00,74.2,62.5,30.16,SSE,165,4.6,6.9,67,0.00,CLR,,0.00,WeatherDisplay:10.37,2013-01-01 15:28:00,
2013-01-01 10:33:00,74.3,62.2,30.16,ESE,102,9.1,13.8,66,0.00,CLR,,0.00,WeatherDisplay:10.37,2013-01-01 15:33:00,
2013-01-01 10:38:00,74.8,62.7,30.15,ESE,123,7.5,11.5,66,0.00,CLR,,0.00,WeatherDisplay:10.37,2013-01-01 15:38:00,
2013-01-01 10:43:00,74.7,62.1,30.15,SE,129,6.4,11.5,65,0.00,CLR,,0.00,WeatherDisplay:10.37,2013-01-01 15:43:00,
2013-01-01 10:48:00,75.1,62.5,30.15,SSE,157,4.4,11.5,65,0.00,CLR,,0.00,WeatherDisplay:10.37,2013-01-01 15:48:00,
2013-01-01 10:53:00,75.7,63.1,30.15,SSE,161,8.5,11.5,65,0.00,CLR,,0.00,WeatherDisplay:10.37,2013-01-01 15:53:00,
2013-01-01 10:58:00,75.5,62.5,30.15,South,189,3.4,7.0,64,0.00,CLR,,0.00,WeatherDisplay:10.37,2013-01-01 15:58:00,
2013-01-01 11:03:00,75.2,62.6,30.14,South,181,4.1,12.7,65,0.00,CLR,,0.00,WeatherDisplay:10.37,2013-01-01 16:03:00,
2013-01-01 11:08:00,75.5,62.5,30.14,SSW,196,8.9,12.7,64,0.00,CLR,,0.00,WeatherDisplay:10.37,2013-01-01 16:08:00,
2013-01-01 11:13:00,75.9,62.4,30.14,ESE,115,10.3,11.5,63,0.00,CLR,,0.00,WeatherDisplay:10.37,2013-01-01 16:13:00,
2013-01-01 11:18:00,75.7,61.8,30.13,SE,128,7.3,13.8,62,0.00,CLR,,0.00,WeatherDisplay:10.37,2013-01-01 16:18:00,
2013-01-01 11:23:00,76.0,62.0,30.14,East,95,7.5,11.5,62,0.00,CLR,,0.00,WeatherDisplay:10.37,2013-01-01 16:23:00,
2013-01-01 11:28:00,76.0,62.0,30.13,SW,219,5.8,9.2,62,0.00,CLR,,0.00,WeatherDisplay:10.37,2013-01-01 16:28:00,
2013-01-01 11:33:00,76.0,62.5,30.14,SE,128,7.6,13.8,63,0.00,CLR,,0.00,WeatherDisplay:10.37,2013-01-01 16:33:00,
2013-01-01 11:38:00,75.8,62.3,30.13,ESE,112,7.0,10.4,63,0.00,CLR,,0.00,WeatherDisplay:10.37,2013-01-01 16:38:00,
2013-01-01 11:43:00,75.7,62.2,30.13,SSE,151,6.3,9.2,63,0.00,CLR,,0.00,WeatherDisplay:10.37,2013-01-01 16:43:00,
2013-01-01 11:48:00,76.0,62.5,30.13,SSE,168,5.5,11.5,63,0.00,CLR,,0.00,WeatherDisplay:10.37,2013-01-01 16:48:00,
2013-01-01 11:53:00,76.3,62.8,30.12,SSE,148,4.6,4.6,63,0.00,CLR,,0.00,WeatherDisplay:10.37,2013-01-01 16:53:00,
2013-01-01 11:58:00,76.5,62.5,30.12,South,173,6.6,11.5,62,0.00,CLR,,0.00,WeatherDisplay:10.37,2013-01-01 16:58:00,
2013-01-01 12:03:00,76.3,62.3,30.12,SE,142,7.6,9.2,62,0.00,CLR,,0.00,WeatherDisplay:10.37,2013-01-01 17:03:00,
2013-01-01 12:08:00,76.1,63.0,30.11,SE,134,4.4,10.4,64,0.00,CLR,,0.00,WeatherDisplay:10.37,2013-01-01 17:08:00,
2013-01-01 12:13:00,76.4,62.9,30.11,ESE,102,11.0,12.7,63,0.00,CLR,,0.00,WeatherDisplay:10.37,2013-01-01 17:13:00,
2013-01-01 12:18:00,76.2,63.1,30.10,SE,134,7.7,9.2,64,0.00,CLR,,0.00,WeatherDisplay:10.37,2013-01-01 17:18:00,
2013-01-01 12:23:00,76.4,63.3,30.10,SE,127,7.7,11.5,64,0.00,CLR,,0.00,WeatherDisplay:10.37,2013-01-01 17:23:00,
2013-01-01 12:29:00,76.2,62.2,30.10,ESE,107,11.2,16.1,62,0.00,CLR,,0.00,WeatherDisplay:10.37,2013-01-01 17:29:00,
2013-01-01 12:34:00,76.0,62.5,30.10,East,101,8.8,11.5,63,0.00,CLR,,0.00,WeatherDisplay:10.37,2013-01-01 17:34:00,
2013-01-01 12:39:00,76.0,62.5,30.09,SE,128,8.5,11.5,63,0.00,CLR,,0.00,WeatherDisplay:10.37,2013-01-01 17:39:00,
2013-01-01 12:44:00,76.3,63.2,30.09,East,100,5.9,13.8,64,0.00,CLR,,0.00,WeatherDisplay:10.37,2013-01-01 17:44:00,
2013-01-01 12:49:00,76.7,62.7,30.09,SSE,165,11.0,18.4,62,0.00,CLR,,0.00,WeatherDisplay:10.37,2013-01-01 17:49:00,
2013-01-01 12:54:00,76.8,63.2,30.08,South,180,6.0,8.1,63,0.00,CLR,,0.00,WeatherDisplay:10.37,2013-01-01 17:54:00,
2013-01-01 12:59:00,76.8,63.2,30.08,SSE,151,6.1,9.2,63,0.00,CLR,,0.00,WeatherDisplay:10.37,2013-01-01 17:59:00,
2013-01-01 13:04:00,76.4,63.8,30.08,East,100,5.1,9.2,65,0.00,CLR,,0.00,WeatherDisplay:10.37,2013-01-01 18:04:00,
2013-01-01 13:09:00,76.3,64.1,30.07,SSE,163,9.2,12.7,66,0.00,CLR,,0.00,WeatherDisplay:10.37,2013-01-01 18:09:00,
2013-01-01 13:14:00,76.5,63.4,30.07,ESE,112,6.6,11.5,64,0.00,CLR,,0.00,WeatherDisplay:10.37,2013-01-01 18:14:00,
2013-01-01 13:19:00,76.2,63.6,30.07,SE,137,8.2,10.4,65,0.00,CLR,,0.00,WeatherDisplay:10.37,2013-01-01 18:19:00,
2013-01-01 13:24:00,76.0,63.4,30.07,South,182,6.5,11.5,65,0.00,CLR,,0.00,WeatherDisplay:10.37,2013-01-01 18:24:00,
2013-01-01 13:29:00,76.3,63.2,30.06,SE,135,5.6,8.1,64,0.00,CLR,,0.00,WeatherDisplay:10.37,2013-01-01 18:29:00,
2013-01-01 13:34:00,76.1,63.9,30.06,South,178,5.5,6.9,66,0.00,CLR,,0.00,WeatherDisplay:10.37,2013-01-01 18:34:00,
2013-01-01 13:39:00,76.3,63.7,30.06,SE,125,6.0,15.0,65,0.00,CLR,,0.00,WeatherDisplay:10.37,2013-01-01 18:39:00,
2013-01-01 13:44:00,76.2,63.6,30.06,South,178,8.5,11.5,65,0.00,CLR,,0.00,WeatherDisplay:10.37,2013-01-01 18:44:00,
2013-01-01 13:49:00,76.0,63.4,30.06,SE,137,5.9,6.9,65,0.00,CLR,,0.00,WeatherDisplay:10.37,2013-01-01 18:49:00,
2013-01-01 13:54:00,76.1,63.5,30.06,East,101,4.2,5.8,65,0.00,CLR,,0.00,WeatherDisplay:10.37,2013-01-01 18:54:00,
2013-01-01 13:59:00,75.8,63.2,30.06,SE,134,6.3,10.4,65,0.00,CLR,,0.00,WeatherDisplay:10.37,2013-01-01 18:59:00,
2013-01-01 14:04:00,75.5,63.3,30.06,SE,136,7.4,11.5,66,0.00,CLR,,0.00,WeatherDisplay:10.37,2013-01-01 19:04:00,
2013-01-01 14:09:00,75.5,63.8,30.06,East,84,6.5,11.5,67,0.00,CLR,,0.00,WeatherDisplay:10.37,2013-01-01 19:09:00,
2013-01-01 14:14:00,75.9,63.7,30.06,SSE,154,7.1,9.2,66,0.00,CLR,,0.00,WeatherDisplay:10.37,2013-01-01 19:14:00,
2013-01-01 14:19:00,76.3,64.1,30.06,South,169,5.1,6.9,66,0.00,CLR,,0.00,WeatherDisplay:10.37,2013-01-01 19:19:00,
2013-01-01 14:24:00,76.8,64.1,30.06,South,178,1.1,5.8,65,0.00,CLR,,0.00,WeatherDisplay:10.37,2013-01-01 19:24:00,
2013-01-01 14:29:00,76.7,63.6,30.06,South,175,4.7,8.1,64,0.00,CLR,,0.00,WeatherDisplay:10.37,2013-01-01 19:29:00,
2013-01-01 14:34:00,76.7,63.2,30.05,ESE,114,6.7,11.5,63,0.00,CLR,,0.00,WeatherDisplay:10.37,2013-01-01 19:34:00,
2013-01-01 14:39:00,76.2,62.7,30.06,SSW,206,6.6,10.4,63,0.00,CLR,,0.00,WeatherDisplay:10.37,2013-01-01 19:39:00,
2013-01-01 14:44:00,76.2,63.1,30.06,South,175,2.3,5.8,64,0.00,CLR,,0.00,WeatherDisplay:10.37,2013-01-01 19:44:00,
2013-01-01 14:49:00,76.2,63.1,30.05,SSE,162,3.7,6.9,64,0.00,CLR,,0.00,WeatherDisplay:10.37,2013-01-01 19:49:00,
2013-01-01 14:54:00,76.0,62.9,30.05,South,185,4.5,6.9,64,0.00,CLR,,0.00,WeatherDisplay:10.37,2013-01-01 19:54:00,
2013-01-01 14:59:00,75.8,63.2,30.05,SE,142,3.2,4.6,65,0.00,CLR,,0.00,WeatherDisplay:10.37,2013-01-01 19:59:00,
2013-01-01 15:04:00,75.5,63.3,30.05,South,175,3.4,6.9,66,0.00,CLR,,0.00,WeatherDisplay:10.37,2013-01-01 20:04:00,
2013-01-01 15:09:00,75.4,63.2,30.05,South,173,3.6,4.6,66,0.00,CLR,,0.00,WeatherDisplay:10.37,2013-01-01 20:09:00,
2013-01-01 15:14:00,75.5,63.8,30.05,SW,215,5.0,6.9,67,0.00,CLR,,0.00,WeatherDisplay:10.37,2013-01-01 20:14:00,
2013-01-01 15:19:00,75.6,63.4,30.05,SSW,203,4.7,8.1,66,0.00,CLR,,0.00,WeatherDisplay:10.37,2013-01-01 20:19:00,
2013-01-01 15:24:00,75.7,64.4,30.05,South,190,6.1,8.1,68,0.00,CLR,,0.00,WeatherDisplay:10.37,2013-01-01 20:24:00,
2013-01-01 15:29:00,75.4,64.5,30.05,ESE,118,5.9,8.1,69,0.00,CLR,,0.00,WeatherDisplay:10.37,2013-01-01 20:29:00,
2013-01-01 15:34:00,75.2,63.9,30.05,SE,144,6.9,10.4,68,0.00,CLR,,0.00,WeatherDisplay:10.37,2013-01-01 20:34:00,
2013-01-01 15:39:00,75.2,64.3,30.05,SSE,165,6.3,10.4,69,0.00,CLR,,0.00,WeatherDisplay:10.37,2013-01-01 20:39:00,
2013-01-01 15:44:00,75.3,64.0,30.05,SSE,152,5.6,10.4,68,0.00,CLR,,0.00,WeatherDisplay:10.37,2013-01-01 20:44:00,
2013-01-01 15:49:00,75.1,64.2,30.05,SSW,208,3.3,5.8,69,0.00,CLR,,0.00,WeatherDisplay:10.37,2013-01-01 20:49:00,
2013-01-01 15:54:00,75.1,64.6,30.05,SE,146,2.5,4.6,70,0.00,CLR,,0.00,WeatherDisplay:10.37,2013-01-01 20:54:00,
2013-01-01 15:59:00,75.0,64.1,30.05,ESE,105,5.4,8.1,69,0.00,CLR,,0.00,WeatherDisplay:10.37,2013-01-01 20:59:00,
2013-01-01 16:04:00,74.9,64.5,30.05,SSE,149,4.3,4.6,70,0.00,CLR,,0.00,WeatherDisplay:10.37,2013-01-01 21:04:00,
2013-01-01 16:09:00,75.0,64.1,30.05,ESE,113,5.8,6.9,69,0.00,CLR,,0.00,WeatherDisplay:10.37,2013-01-01 21:09:00,
2013-01-01 16:14:00,75.0,64.5,30.05,SE,145,2.3,5.8,70,0.00,CLR,,0.00,WeatherDisplay:10.37,2013-01-01 21:14:00,
2013-01-01 16:19:00,74.9,64.9,30.05,SE,124,2.5,3.0,71,0.00,CLR,,0.00,WeatherDisplay:10.37,2013-01-01 21:19:00,
2013-01-01 16:24:00,74.7,64.7,30.05,ESE,118,6.5,9.2,71,0.00,CLR,,0.00,WeatherDisplay:10.37,2013-01-01 21:24:00,
2013-01-01 16:29:00,74.5,64.5,30.05,South,170,4.7,5.8,71,0.00,CLR,,0.00,WeatherDisplay:10.37,2013-01-01 21:29:00,
2013-01-01 16:34:00,74.4,64.8,30.05,ESE,123,5.2,9.2,72,0.00,CLR,,0.00,WeatherDisplay:10.37,2013-01-01 21:34:00,
2013-01-01 16:39:00,74.4,64.8,30.05,South,176,4.6,9.2,72,0.00,CLR,,0.00,WeatherDisplay:10.37,2013-01-01 21:39:00,
2013-01-01 16:45:00,74.4,64.8,30.05,SE,135,3.9,5.8,72,0.00,CLR,,0.00,WeatherDisplay:10.37,2013-01-01 21:45:00,
2013-01-01 16:50:00,74.3,64.7,30.05,SSE,161,3.2,5.8,72,0.00,CLR,,0.00,WeatherDisplay:10.37,2013-01-01 21:50:00,
2013-01-01 16:55:00,74.2,64.6,30.05,SSE,161,2.5,3.5,72,0.00,CLR,,0.00,WeatherDisplay:10.37,2013-01-01 21:55:00,
2013-01-01 17:00:00,74.2,64.6,30.05,SSW,194,0.5,2.3,72,0.00,CLR,,0.00,WeatherDisplay:10.37,2013-01-01 22:00:00,
2013-01-01 17:05:00,74.1,64.1,30.05,SSE,157,3.2,4.6,71,0.00,CLR,,0.00,WeatherDisplay:10.37,2013-01-01 22:05:00,
2013-01-01 17:10:00,74.0,63.6,30.05,SSW,196,0.1,2.3,70,0.00,CLR,,0.00,WeatherDisplay:10.37,2013-01-01 22:10:00,
2013-01-01 17:15:00,74.0,64.0,30.05,SSW,196,1.3,3.5,71,0.00,CLR,,0.00,WeatherDisplay:10.37,2013-01-01 22:15:00,
2013-01-01 17:20:00,73.9,63.5,30.05,South,174,1.6,3.5,70,0.00,CLR,,0.00,WeatherDisplay:10.37,2013-01-01 22:20:00,
2013-01-01 17:25:00,73.9,63.5,30.05,South,172,1.4,3.5,70,0.00,CLR,,0.00,WeatherDisplay:10.37,2013-01-01 22:25:00,
2013-01-01 17:30:00,73.8,63.4,30.05,SE,138,1.7,3.5,70,0.00,CLR,,0.00,WeatherDisplay:10.37,2013-01-01 22:30:00,
2013-01-01 17:35:00,73.7,63.3,30.05,ESE,123,3.8,4.6,70,0.00,CLR,,0.00,WeatherDisplay:10.37,2013-01-01 22:35:00,
2013-01-01 17:40:00,73.7,63.3,30.05,SSE,149,0.9,3.5,70,0.00,CLR,,0.00,WeatherDisplay:10.37,2013-01-01 22:40:00,
2013-01-01 17:45:00,73.7,63.3,30.04,SSE,154,1.9,3.5,70,0.00,CLR,,0.00,WeatherDisplay:10.37,2013-01-01 22:45:00,
2013-01-01 17:50:00,73.6,63.2,30.04,SSE,167,1.0,2.3,70,0.00,CLR,,0.00,WeatherDisplay:10.37,2013-01-01 22:50:00,
2013-01-01 17:55:00,73.6,63.2,30.05,South,178,1.5,3.5,70,0.00,CLR,,0.00,WeatherDisplay:10.37,2013-01-01 22:55:00,
2013-01-01 18:00:00,73.5,63.1,30.05,South,177,0.8,1.1,70,0.00,CLR,,0.00,WeatherDisplay:10.37,2013-01-01 23:00:00,
2013-01-01 18:05:00,73.4,63.4,30.05,South,177,0.0,0.0,71,0.00,CLR,,0.00,WeatherDisplay:10.37,2013-01-01 23:05:00,
2013-01-01 18:10:00,73.2,62.8,30.05,South,177,0.3,1.1,70,0.00,CLR,,0.00,WeatherDisplay:10.37,2013-01-01 23:10:00,
2013-01-01 18:15:00,73.0,63.4,30.05,South,177,0.0,0.0,72,0.00,CLR,,0.00,WeatherDisplay:10.37,2013-01-01 23:15:00,
2013-01-01 18:20:00,72.7,63.1,30.05,South,177,0.0,1.1,72,0.00,CLR,,0.00,WeatherDisplay:10.37,2013-01-01 23:20:00,
2013-01-01 18:25:00,72.6,63.4,30.06,South,177,0.0,0.0,73,0.00,CLR,,0.00,WeatherDisplay:10.37,2013-01-01 23:25:00,
2013-01-01 18:30:00,72.4,63.6,30.05,South,177,0.3,1.1,74,0.00,CLR,,0.00,WeatherDisplay:10.37,2013-01-01 23:30:00,
2013-01-01 18:35:00,72.1,63.4,30.05,South,177,0.1,1.1,74,0.00,CLR,,0.00,WeatherDisplay:10.37,2013-01-01 23:35:00,
2013-01-01 18:40:00,71.9,63.2,30.06,South,177,1.2,2.3,74,0.00,CLR,,0.00,WeatherDisplay:10.37,2013-01-01 23:40:00,
2013-01-01 18:45:00,71.9,63.5,30.06,South,177,0.0,1.1,75,0.00,CLR,,0.00,WeatherDisplay:10.37,2013-01-01 23:45:00,
2013-01-01 18:50:00,71.7,63.4,30.06,South,177,0.5,1.1,75,0.00,CLR,,0.00,WeatherDisplay:10.37,2013-01-01 23:50:00,
2013-01-01 18:55:00,71.8,63.8,30.06,South,177,0.0,0.0,76,0.00,CLR,,0.00,WeatherDisplay:10.37,2013-01-01 23:55:00,
2013-01-01 19:00:00,71.8,63.8,30.06,South,177,0.0,0.0,76,0.00,CLR,,0.00,WeatherDisplay:10.37,2013-01-02 00:00:00,
2013-01-01 19:05:00,71.7,64.1,30.05,South,177,0.2,1.1,77,0.00,CLR,,0.00,WeatherDisplay:10.37,2013-01-02 00:05:00,
2013-01-01 19:10:00,71.4,63.4,30.05,South,177,0.0,0.0,76,0.00,CLR,,0.00,WeatherDisplay:10.37,2013-01-02 00:10:00,
2013-01-01 19:15:00,71.2,63.6,30.05,South,177,0.0,0.0,77,0.00,CLR,,0.00,WeatherDisplay:10.37,2013-01-02 00:15:00,
2013-01-01 19:20:00,71.1,64.6,30.05,South,177,0.0,0.0,80,0.00,CLR,,0.00,WeatherDisplay:10.37,2013-01-02 00:20:00,
2013-01-01 19:25:00,70.9,64.4,30.06,South,177,0.0,0.0,80,0.00,CLR,,0.00,WeatherDisplay:10.37,2013-01-02 00:25:00,
2013-01-01 19:30:00,70.6,64.5,30.06,South,177,0.0,0.0,81,0.00,CLR,,0.00,WeatherDisplay:10.37,2013-01-02 00:30:00,
2013-01-01 19:35:00,70.2,64.4,30.06,South,177,0.0,0.0,82,0.00,CLR,,0.00,WeatherDisplay:10.37,2013-01-02 00:35:00,
2013-01-01 19:40:00,69.8,64.1,30.06,South,177,0.0,0.0,82,0.00,CLR,,0.00,WeatherDisplay:10.37,2013-01-02 00:40:00,
2013-01-01 19:45:00,69.4,64.0,30.06,South,177,0.0,0.0,83,0.00,CLR,,0.00,WeatherDisplay:10.37,2013-01-02 00:45:00,
2013-01-01 19:50:00,69.1,64.1,30.06,South,177,0.0,0.0,84,0.00,CLR,,0.00,WeatherDisplay:10.37,2013-01-02 00:50:00,
2013-01-01 19:55:00,68.7,63.3,30.06,South,177,0.0,0.0,83,0.00,CLR,,0.00,WeatherDisplay:10.37,2013-01-02 00:55:00,
2013-01-01 20:00:00,68.3,63.3,30.07,South,177,0.0,0.0,84,0.00,CLR,,0.00,WeatherDisplay:10.37,2013-01-02 01:00:00,
2013-01-01 20:05:00,68.0,63.0,30.07,South,177,0.0,0.0,84,0.00,CLR,,0.00,WeatherDisplay:10.37,2013-01-02 01:05:00,
2013-01-01 20:10:00,67.8,63.1,30.06,South,177,0.0,0.0,85,0.00,CLR,,0.00,WeatherDisplay:10.37,2013-01-02 01:10:00,
2013-01-01 20:15:00,67.6,62.9,30.07,South,177,0.0,0.0,85,0.00,CLR,,0.00,WeatherDisplay:10.37,2013-01-02 01:15:00,
2013-01-01 20:20:00,67.5,63.5,30.07,South,177,0.0,0.0,87,0.00,CLR,,0.00,WeatherDisplay:10.37,2013-01-02 01:20:00,
2013-01-01 20:25:00,67.3,63.0,30.07,South,177,0.0,0.0,86,0.00,CLR,,0.00,WeatherDisplay:10.37,2013-01-02 01:25:00,
2013-01-01 20:30:00,67.2,63.2,30.07,South,177,0.0,0.0,87,0.00,CLR,,0.00,WeatherDisplay:10.37,2013-01-02 01:30:00,
2013-01-01 20:35:00,67.2,63.2,30.07,South,177,0.0,0.0,87,0.00,CLR,,0.00,WeatherDisplay:10.37,2013-01-02 01:35:00,
2013-01-01 20:40:00,67.2,63.2,30.07,South,177,0.0,0.0,87,0.00,CLR,,0.00,WeatherDisplay:10.37,2013-01-02 01:40:00,
2013-01-01 20:46:00,67.3,63.6,30.07,South,177,0.0,0.0,88,0.00,CLR,,0.00,WeatherDisplay:10.37,2013-01-02 01:46:00,
2013-01-01 20:51:00,67.4,64.0,30.07,South,177,0.0,0.0,89,0.00,CLR,,0.00,WeatherDisplay:10.37,2013-01-02 01:51:00,
2013-01-01 20:56:00,67.3,63.6,30.07,South,177,0.0,0.0,88,0.00,CLR,,0.00,WeatherDisplay:10.37,2013-01-02 01:56:00,
2013-01-01 21:01:00,67.2,63.5,30.07,South,177,0.0,0.0,88,0.00,CLR,,0.00,WeatherDisplay:10.37,2013-01-02 02:01:00,
2013-01-01 21:06:00,67.1,63.1,30.07,South,177,0.0,0.0,87,0.00,CLR,,0.00,WeatherDisplay:10.37,2013-01-02 02:06:00,
2013-01-01 21:11:00,67.2,63.5,30.08,South,177,0.0,0.0,88,0.00,CLR,,0.00,WeatherDisplay:10.37,2013-01-02 02:11:00,
2013-01-01 21:16:00,67.1,63.1,30.07,South,177,0.0,0.0,87,0.00,CLR,,0.00,WeatherDisplay:10.37,2013-01-02 02:16:00,
2013-01-01 21:22:00,67.0,63.0,30.08,South,177,0.0,0.0,87,0.00,CLR,,0.00,WeatherDisplay:10.37,2013-01-02 02:22:00,
2013-01-01 21:26:00,66.9,63.2,30.08,South,177,0.0,0.0,88,0.00,CLR,,0.00,WeatherDisplay:10.37,2013-01-02 02:26:00,
2013-01-01 21:32:00,66.8,63.5,30.08,South,177,0.0,0.0,89,0.00,CLR,,0.00,WeatherDisplay:10.37,2013-01-02 02:32:00,
2013-01-01 21:37:00,66.7,63.4,30.08,South,177,0.0,0.0,89,0.00,CLR,,0.00,WeatherDisplay:10.37,2013-01-02 02:37:00,
2013-01-01 21:42:00,66.7,63.4,30.08,South,177,0.0,0.0,89,0.00,CLR,,0.00,WeatherDisplay:10.37,2013-01-02 02:42:00,
2013-01-01 21:47:00,66.6,63.6,30.08,South,177,0.0,0.0,90,0.00,CLR,,0.00,WeatherDisplay:10.37,2013-01-02 02:47:00,
2013-01-01 21:52:00,66.6,63.6,30.08,South,177,0.0,0.0,90,0.00,CLR,,0.00,WeatherDisplay:10.37,2013-01-02 02:52:00,
2013-01-01 21:57:00,66.6,63.6,30.08,South,177,0.0,0.0,90,0.00,CLR,,0.00,WeatherDisplay:10.37,2013-01-02 02:57:00,
2013-01-01 22:02:00,66.5,63.5,30.08,South,177,0.0,0.0,90,0.00,CLR,,0.00,WeatherDisplay:10.37,2013-01-02 03:02:00,
2013-01-01 22:07:00,66.4,63.4,30.08,South,177,0.0,0.0,90,0.00,CLR,,0.00,WeatherDisplay:10.37,2013-01-02 03:07:00,
2013-01-01 22:12:00,66.4,63.4,30.08,South,177,0.0,0.0,90,0.00,CLR,,0.00,WeatherDisplay:10.37,2013-01-02 03:12:00,
2013-01-01 22:17:00,66.3,63.3,30.08,South,177,0.0,0.0,90,0.00,CLR,,0.00,WeatherDisplay:10.37,2013-01-02 03:17:00,
2013-01-01 22:22:00,66.3,63.3,30.08,South,177,0.0,0.0,90,0.00,CLR,,0.00,WeatherDisplay:10.37,2013-01-02 03:22:00,
2013-01-01 22:27:00,66.3,63.3,30.08,South,177,0.0,0.0,90,0.00,CLR,,0.00,WeatherDisplay:10.37,2013-01-02 03:27:00,
2013-01-01 22:32:00,66.2,63.2,30.07,South,177,0.0,0.0,90,0.00,CLR,,0.00,WeatherDisplay:10.37,2013-01-02 03:32:00,
2013-01-01 22:37:00,66.2,63.5,30.07,South,177,0.0,0.0,91,0.00,CLR,,0.00,WeatherDisplay:10.37,2013-01-02 03:37:00,
2013-01-01 22:42:00,66.2,63.5,30.07,South,177,0.0,0.0,91,0.00,CLR,,0.00,WeatherDisplay:10.37,2013-01-02 03:42:00,
2013-01-01 22:47:00,66.1,63.4,30.07,South,177,0.0,0.0,91,0.00,CLR,,0.00,WeatherDisplay:10.37,2013-01-02 03:47:00,
2013-01-01 22:52:00,65.9,63.2,30.07,South,177,0.0,0.0,91,0.00,CLR,,0.00,WeatherDisplay:10.37,2013-01-02 03:52:00,
2013-01-01 22:57:00,65.8,63.1,30.07,South,177,0.0,0.0,91,0.00,CLR,,0.00,WeatherDisplay:10.37,2013-01-02 03:57:00,
2013-01-01 23:02:00,65.8,63.4,30.07,South,177,0.0,0.0,92,0.00,CLR,,0.00,WeatherDisplay:10.37,2013-01-02 04:02:00,
2013-01-01 23:07:00,65.6,62.9,30.07,South,177,0.0,0.0,91,0.00,CLR,,0.00,WeatherDisplay:10.37,2013-01-02 04:07:00,
2013-01-01 23:12:00,65.4,62.7,30.07,South,177,0.0,0.0,91,0.00,CLR,,0.00,WeatherDisplay:10.37,2013-01-02 04:12:00,
2013-01-01 23:17:00,65.3,62.9,30.07,South,177,0.0,0.0,92,0.00,CLR,,0.00,WeatherDisplay:10.37,2013-01-02 04:17:00,
2013-01-01 23:22:00,65.2,62.8,30.06,South,177,0.0,0.0,92,0.00,CLR,,0.00,WeatherDisplay:10.37,2013-01-02 04:22:00,
2013-01-01 23:27:00,65.0,62.6,30.06,South,177,0.0,0.0,92,0.00,CLR,,0.00,WeatherDisplay:10.37,2013-01-02 04:27:00,
2013-01-01 23:32:00,64.9,62.5,30.06,South,177,0.0,0.0,92,0.00,CLR,,0.00,WeatherDisplay:10.37,2013-01-02 04:32:00,
2013-01-01 23:37:00,64.7,62.3,30.06,South,177,0.0,0.0,92,0.00,CLR,,0.00,WeatherDisplay:10.37,2013-01-02 04:37:00,
2013-01-01 23:42:00,64.7,62.6,30.06,South,177,0.0,0.0,93,0.00,CLR,,0.00,WeatherDisplay:10.37,2013-01-02 04:42:00,
2013-01-01 23:47:00,64.5,62.4,30.06,South,177,0.0,0.0,93,0.00,CLR,,0.00,WeatherDisplay:10.37,2013-01-02 04:47:00,
2013-01-01 23:52:00,64.4,62.3,30.06,South,177,0.0,0.0,93,0.00,CLR,,0.00,WeatherDisplay:10.37,2013-01-02 04:52:00,
2013-01-01 23:57:00,64.3,62.2,30.05,South,177,0.0,0.0,93,0.00,CLR,,0.00,WeatherDisplay:10.37,2013-01-02 04:57:00,